Keaau, HI

8:16 AM HST on February 25, 2017 (GMT -1000)
Hawaiian Paradise Park | | Change Station

Elev 197 ft 19.59 °N, 154.99 °W | Updated 7 minutes ago

Mostly Cloudy
Mostly Cloudy
64.2 °F
Feels Like 64.2 °F
N
0.0
Wind Variable Wind from West

Today
High -- | Low -- °F
--% Chance of Precip.
Yesterday
High -- | Low -- °F
Precip. -- in
Pressure 30.05 in
Visibility 10.0 miles
Clouds Mostly Cloudy 5000 ft
Mostly Cloudy 11000 ft
Overcast 18000 ft
Dew Point 59 °F
Humidity 84%
Rainfall 0.00 in
Snow Depth Not available.
6:42 AM 6:24 PM
Waning Crescent, 1% visible
METAR PHTO 251753Z 24007KT 10SM BKN050 BKN110 OVC180 19/12 A3005 RMK AO2 SLP175 T01890122 10189 20167 51012
Pressure 30.05 in
Visibility 10.0 miles
Clouds Mostly Cloudy 5000 ft
Mostly Cloudy 11000 ft
Overcast 18000 ft
Dew Point 59 °F
Humidity 84%
Rainfall 0.00 in
Snow Depth Not available.
6:42 AM 6:24 PM
Waning Crescent, 1% visible
METAR PHTO 251753Z 24007KT 10SM BKN050 BKN110 OVC180 19/12 A3005 RMK AO2 SLP175 T01890122 10189 20167 51012

Get Your Daily Forecast Email!

Thanks for signing up!

Be on the lookout for a verification email in your inbox.

You'll start receiving the daily forecast at 8 AM.

×

10-Day Weather Forecast

Almanac

Astronomy

Feb. 25, 2017 Rise Set
Actual Time
Civil Twilight
Nautical Twilight
Astronomical Twilight
Moon
Length of Visible Light
Length of Day
Tomorrow will be .
, % of the Moon is Illuminated

Today's Extremes

State Highs State Lows

Community

WunderPhotos

Upload Photos

1,962,540 photos uploaded!

WunderBlog® & News

Nearby

Air Quality

  Air Quality AQ Index Pollutant
Not available.

Snow Depth

Station Depth Elevation

Earthquake Activity

City Distance Mag. Time & Date
Minimum magnitude displayed is 2.5.

Coastal Water Temperatures

Place Temperature

Stations

Nearby Weather Stations

Station Location Temp. Windchill Dew Point Humidity Wind Precip. Elev Updated Type
                   

Watches & Warnings

There are currently no watches in effect.